createdAt,value
2019-04-07T03:00:52.148Z,3.10
2019-04-07T03:03:28.102Z,3.00
2019-04-07T03:06:26.203Z,3.00
2019-04-07T03:09:03.811Z,2.90
2019-04-07T03:11:52.341Z,2.80
2019-04-07T03:14:22.484Z,2.70
2019-04-07T03:16:58.110Z,2.60
2019-04-07T03:19:28.129Z,2.60
2019-04-07T03:22:11.024Z,2.60
2019-04-07T03:24:56.773Z,2.60
2019-04-07T03:27:32.558Z,2.60
2019-04-07T03:30:09.323Z,2.70
2019-04-07T03:32:42.818Z,2.70
2019-04-07T03:35:15.956Z,2.70
2019-04-07T03:37:52.989Z,2.70
2019-04-07T03:40:39.381Z,2.80
2019-04-07T03:43:24.396Z,2.70
2019-04-07T03:45:57.391Z,2.50
2019-04-07T03:48:33.227Z,2.30
2019-04-07T03:51:20.298Z,2.30
2019-04-07T03:53:56.409Z,2.40
2019-04-07T03:56:41.678Z,2.50
2019-04-07T03:59:27.463Z,2.50
2019-04-07T04:02:00.334Z,2.50
2019-04-07T04:04:43.558Z,2.50
2019-04-07T04:07:31.642Z,2.50
2019-04-07T04:10:03.388Z,2.40
2019-04-07T04:12:36.100Z,2.40
2019-04-07T04:15:08.679Z,2.40
2019-04-07T04:17:37.137Z,2.30
2019-04-07T04:20:07.157Z,2.30
2019-04-07T04:22:35.952Z,2.20
2019-04-07T04:25:05.744Z,2.20
2019-04-07T04:27:35.012Z,2.20
2019-04-07T04:30:03.631Z,2.20
2019-04-07T04:32:32.761Z,2.20
2019-04-07T04:35:01.423Z,2.30
2019-04-07T04:37:40.461Z,2.20
2019-04-07T04:39:59.909Z,2.30
2019-04-07T04:42:28.972Z,2.20
2019-04-07T04:44:57.362Z,2.30
2019-04-07T04:47:25.735Z,2.10
2019-04-07T04:49:54.371Z,2.00
2019-04-07T04:52:22.762Z,2.00
2019-04-07T04:54:51.797Z,2.00
2019-04-07T04:57:20.199Z,2.00
2019-04-07T04:59:48.561Z,2.10
2019-04-07T05:02:17.170Z,2.20
2019-04-07T05:04:45.870Z,2.20
2019-04-07T05:07:14.304Z,2.30
2019-04-07T05:09:48.917Z,2.30
2019-04-07T05:12:12.818Z,2.30
2019-04-07T05:14:41.305Z,2.40
2019-04-07T05:17:10.081Z,2.50
2019-04-07T05:19:39.099Z,2.60
2019-04-07T05:22:08.645Z,2.50
2019-04-07T05:24:37.609Z,2.60
2019-04-07T05:27:06.426Z,2.60
2019-04-07T05:29:35.594Z,2.60
2019-04-07T05:32:04.566Z,2.60
2019-04-07T05:34:33.384Z,2.60
2019-04-07T05:37:02.208Z,2.60
2019-04-07T05:39:30.912Z,2.70
2019-04-07T05:41:59.358Z,2.80
2019-04-07T05:44:27.849Z,2.90
2019-04-07T05:46:56.207Z,3.10
2019-04-07T05:49:24.568Z,3.20
2019-04-07T05:51:53.398Z,3.30
2019-04-07T05:54:22.454Z,3.20
2019-04-07T05:56:51.435Z,3.00
2019-04-07T05:59:19.911Z,2.80
2019-04-07T06:01:50.512Z,2.80
2019-04-07T06:04:19.235Z,2.80
2019-04-07T06:06:51.219Z,3.00
2019-04-07T06:09:20.451Z,3.10
2019-04-07T06:11:48.661Z,3.20
2019-04-07T06:14:17.223Z,3.40
2019-04-07T06:16:45.589Z,3.50
2019-04-07T06:19:13.975Z,3.60
2019-04-07T06:21:46.142Z,3.80
2019-04-07T06:24:12.372Z,3.80
2019-04-07T06:26:42.103Z,4.00
2019-04-07T06:29:10.754Z,3.90
2019-04-07T06:31:39.127Z,3.90
2019-04-07T06:34:10.108Z,3.90
2019-04-07T06:36:37.581Z,3.90
2019-04-07T06:39:08.262Z,4.00
2019-04-07T06:41:36.792Z,4.10
2019-04-07T06:44:11.953Z,4.30
2019-04-07T06:46:52.420Z,4.40
2019-04-07T06:49:43.425Z,4.60
2019-04-07T06:52:19.283Z,4.80
2019-04-07T06:54:58.115Z,5.00
2019-04-07T06:57:37.719Z,5.20
2019-04-07T07:00:14.178Z,5.40
2019-04-07T07:02:45.265Z,5.50
2019-04-07T07:05:33.566Z,5.60
2019-04-07T07:08:03.000Z,5.90
2019-04-07T07:10:50.569Z,6.10
2019-04-07T07:13:29.234Z,6.30
2019-04-07T07:15:58.560Z,6.40
2019-04-07T07:18:29.433Z,6.50
2019-04-07T07:21:05.227Z,6.60
2019-04-07T07:23:35.251Z,7.00
2019-04-07T07:26:04.269Z,6.90
2019-04-07T07:28:32.682Z,7.00
2019-04-07T07:31:01.069Z,7.20
2019-04-07T07:33:29.569Z,7.30
2019-04-07T07:35:58.351Z,7.30
2019-04-07T07:38:30.224Z,7.20
2019-04-07T07:41:00.097Z,7.30
2019-04-07T07:43:29.123Z,7.40
2019-04-07T07:45:57.657Z,7.50
2019-04-07T07:48:27.965Z,7.60
2019-04-07T07:50:56.150Z,7.70
2019-04-07T07:53:27.207Z,7.80
2019-04-07T07:55:54.562Z,7.90
2019-04-07T07:58:23.476Z,7.90
2019-04-07T08:00:52.498Z,8.00
2019-04-07T08:03:22.644Z,8.30
2019-04-07T08:05:51.180Z,8.40
2019-04-07T08:08:20.047Z,8.30
2019-04-07T08:10:48.402Z,8.30
2019-04-07T08:13:16.890Z,8.30
2019-04-07T08:15:45.822Z,8.30
2019-04-07T08:18:14.508Z,8.40
2019-04-07T08:20:44.948Z,8.40
2019-04-07T08:23:13.612Z,8.60
2019-04-07T08:25:42.649Z,8.60
2019-04-07T08:28:10.983Z,8.80
2019-04-07T08:30:43.976Z,8.80
2019-04-07T08:33:09.435Z,9.00
2019-04-07T08:35:39.570Z,9.00
2019-04-07T08:38:07.818Z,9.00
2019-04-07T08:40:36.894Z,9.30
2019-04-07T08:43:06.195Z,9.40
2019-04-07T08:45:35.046Z,9.40
2019-04-07T08:48:04.103Z,9.50
2019-04-07T08:50:33.134Z,9.40
2019-04-07T08:53:02.107Z,9.20
2019-04-07T08:55:30.932Z,9.70
2019-04-07T08:58:01.686Z,9.90
2019-04-07T09:00:31.584Z,10.00
2019-04-07T09:03:04.725Z,9.90
2019-04-07T09:05:31.194Z,10.10
2019-04-07T09:08:03.316Z,10.10
2019-04-07T09:10:33.281Z,9.90
2019-04-07T09:13:03.006Z,10.20
2019-04-07T09:15:42.101Z,10.00
2019-04-07T09:18:23.264Z,10.40
2019-04-07T09:21:10.165Z,10.20
2019-04-07T09:23:41.000Z,10.10
2019-04-07T09:26:12.007Z,10.70
2019-04-07T09:28:42.117Z,10.50
2019-04-07T09:31:12.126Z,10.30
2019-04-07T09:33:51.812Z,10.40
2019-04-07T09:36:33.646Z,10.70
2019-04-07T09:39:20.252Z,10.70
2019-04-07T09:42:09.045Z,10.60
2019-04-07T09:44:45.319Z,10.70
2019-04-07T09:47:24.458Z,10.60
2019-04-07T09:49:58.300Z,11.10
2019-04-07T09:52:31.830Z,11.10
2019-04-07T09:55:04.875Z,11.00
2019-04-07T09:57:45.105Z,10.90
2019-04-07T10:00:15.937Z,10.60
2019-04-07T10:03:04.947Z,10.80
2019-04-07T10:05:32.509Z,11.00
2019-04-07T10:08:11.415Z,11.10
2019-04-07T10:10:45.547Z,10.80
2019-04-07T10:13:18.874Z,10.90
2019-04-07T10:15:49.016Z,10.90
2019-04-07T10:18:21.991Z,10.90
2019-04-07T10:20:51.990Z,11.10
2019-04-07T10:23:38.588Z,11.10
2019-04-07T10:26:09.424Z,11.20
2019-04-07T10:28:41.831Z,11.10
2019-04-07T10:31:13.906Z,11.60
2019-04-07T10:34:02.020Z,11.20
2019-04-07T10:36:38.722Z,11.70
2019-04-07T10:39:14.715Z,11.10
2019-04-07T10:41:50.755Z,11.20
2019-04-07T10:44:35.863Z,11.10
2019-04-07T10:47:18.310Z,11.30
2019-04-07T10:50:07.388Z,11.60
2019-04-07T10:52:36.088Z,11.70
2019-04-07T10:55:23.155Z,11.70
2019-04-07T10:57:53.800Z,11.60
2019-04-07T11:00:33.380Z,11.80
2019-04-07T11:03:06.488Z,12.20
2019-04-07T11:05:39.376Z,12.40
2019-04-07T11:08:18.242Z,13.00
2019-04-07T11:11:03.436Z,13.00
2019-04-07T11:13:34.247Z,12.80
2019-04-07T11:16:10.832Z,12.90
2019-04-07T11:18:50.413Z,13.50
2019-04-07T11:21:23.748Z,12.90
2019-04-07T11:24:08.935Z,12.90
2019-04-07T11:26:48.568Z,13.10
2019-04-07T11:29:25.089Z,12.80
2019-04-07T11:32:01.478Z,13.10
2019-04-07T11:34:34.181Z,13.40
2019-04-07T11:37:09.743Z,13.40
2019-04-07T11:39:47.937Z,13.50
2019-04-07T11:42:18.504Z,13.00
2019-04-07T11:44:51.558Z,13.30
2019-04-07T11:47:30.630Z,13.30
2019-04-07T11:50:15.449Z,13.60
2019-04-07T11:52:48.321Z,13.50
2019-04-07T11:55:33.485Z,13.50
2019-04-07T11:58:26.048Z,13.50
2019-04-07T12:00:51.564Z,13.10
2019-04-07T12:03:38.619Z,13.50
2019-04-07T12:06:08.735Z,13.70
2019-04-07T12:08:47.807Z,13.60
2019-04-07T12:11:34.382Z,13.70
2019-04-07T12:14:20.506Z,13.50
2019-04-07T12:17:06.082Z,13.90
2019-04-07T12:19:34.162Z,13.50
2019-04-07T12:22:14.191Z,13.60
2019-04-07T12:24:47.998Z,13.90
2019-04-07T12:27:20.347Z,13.90
2019-04-07T12:30:02.393Z,13.80
2019-04-07T12:32:35.707Z,14.00
2019-04-07T12:35:26.172Z,13.90
2019-04-07T12:38:01.970Z,13.70
2019-04-07T12:40:44.235Z,13.40
2019-04-07T12:43:14.267Z,13.30
2019-04-07T12:46:01.195Z,13.60
2019-04-07T12:48:43.522Z,13.60
2019-04-07T12:51:28.840Z,13.80
2019-04-07T12:54:11.741Z,14.00
2019-04-07T12:56:57.916Z,14.30
2019-04-07T12:59:47.786Z,14.40
2019-04-07T13:02:21.914Z,14.20
2019-04-07T13:04:52.740Z,14.30
2019-04-07T13:07:23.022Z,14.10
2019-04-07T13:09:53.779Z,14.40
2019-04-07T13:12:39.800Z,14.10
2019-04-07T13:15:14.140Z,14.50
2019-04-07T13:18:03.646Z,14.40
2019-04-07T13:20:35.071Z,14.50
2019-04-07T13:23:07.990Z,14.50
2019-04-07T13:25:43.981Z,15.00
2019-04-07T13:28:14.187Z,14.70
2019-04-07T13:30:53.092Z,14.90
2019-04-07T13:33:32.939Z,14.50
2019-04-07T13:36:18.993Z,14.80
2019-04-07T13:38:58.814Z,14.60
2019-04-07T13:41:38.642Z,15.20
2019-04-07T13:44:07.183Z,15.20
2019-04-07T13:46:41.175Z,15.40
2019-04-07T13:49:17.042Z,15.10
2019-04-07T13:51:52.680Z,15.20
2019-04-07T13:54:25.424Z,15.10
2019-04-07T13:56:58.134Z,14.90
2019-04-07T13:59:30.877Z,15.00
2019-04-07T14:02:07.389Z,15.20
2019-04-07T14:04:37.386Z,15.40
2019-04-07T14:07:23.406Z,15.10
2019-04-07T14:10:01.412Z,14.90
2019-04-07T14:12:33.355Z,14.40
2019-04-07T14:15:02.914Z,14.30
2019-04-07T14:17:45.057Z,14.40
2019-04-07T14:20:18.022Z,14.60
2019-04-07T14:22:54.138Z,14.80
2019-04-07T14:25:27.814Z,14.70
2019-04-07T14:28:07.868Z,14.90
2019-04-07T14:30:46.927Z,15.10
2019-04-07T14:33:35.858Z,15.00
2019-04-07T14:36:06.282Z,15.10
2019-04-07T14:38:40.135Z,15.40
2019-04-07T14:41:23.067Z,15.90
2019-04-07T14:44:02.017Z,16.20
2019-04-07T14:46:46.757Z,15.80
2019-04-07T14:49:37.912Z,15.90
2019-04-07T14:52:08.859Z,15.90
2019-04-07T14:54:57.983Z,15.60
2019-04-07T14:57:26.895Z,15.70
2019-04-07T14:59:57.782Z,16.20
2019-04-07T15:02:26.234Z,16.00
2019-04-07T15:05:02.966Z,16.10
2019-04-07T15:07:48.399Z,15.90
2019-04-07T15:10:20.186Z,16.00
2019-04-07T15:12:50.298Z,16.60
2019-04-07T15:15:18.951Z,15.90
2019-04-07T15:17:47.689Z,15.90
2019-04-07T15:20:16.102Z,15.80
2019-04-07T15:22:46.091Z,16.20
2019-04-07T15:25:15.159Z,16.50
2019-04-07T15:27:44.478Z,16.30
2019-04-07T15:30:15.345Z,16.70
2019-04-07T15:32:43.811Z,17.10
2019-04-07T15:35:14.307Z,17.30
2019-04-07T15:37:42.267Z,19.60
2019-04-07T15:40:10.932Z,23.30
2019-04-07T15:42:44.105Z,26.00
2019-04-07T15:45:12.090Z,26.50
2019-04-07T15:47:40.427Z,27.40
2019-04-07T15:50:09.554Z,26.90
2019-04-07T15:52:42.171Z,28.00
2019-04-07T15:55:08.423Z,28.40
2019-04-07T15:57:37.251Z,29.60
2019-04-07T16:00:06.803Z,30.60
2019-04-07T16:02:35.607Z,31.40
2019-04-07T16:05:06.254Z,29.60
2019-04-07T16:07:35.222Z,29.20
2019-04-07T16:10:05.955Z,30.10
2019-04-07T16:12:43.645Z,32.30
2019-04-07T16:15:05.310Z,32.00
2019-04-07T16:17:34.816Z,32.10
2019-04-07T16:20:04.326Z,32.90
2019-04-07T16:22:33.473Z,33.50
2019-04-07T16:25:01.889Z,28.80
2019-04-07T16:27:30.468Z,27.90
2019-04-07T16:29:58.875Z,25.20
2019-04-07T16:32:29.191Z,29.30
2019-04-07T16:34:57.327Z,31.20
2019-04-07T16:37:29.105Z,30.70
2019-04-07T16:39:55.662Z,29.50
2019-04-07T16:42:24.419Z,29.50
2019-04-07T16:44:53.691Z,29.70
2019-04-07T16:47:25.683Z,28.90
2019-04-07T16:49:52.428Z,29.30
2019-04-07T16:52:20.750Z,28.50
2019-04-07T16:54:49.114Z,29.60
2019-04-07T16:57:17.537Z,28.80
2019-04-07T16:59:46.691Z,28.70
2019-04-07T17:02:16.978Z,28.60
2019-04-07T17:04:45.184Z,28.70
2019-04-07T17:07:16.485Z,28.70
2019-04-07T17:09:43.595Z,29.60
2019-04-07T17:12:12.688Z,29.00
2019-04-07T17:14:42.045Z,27.80
2019-04-07T17:17:11.157Z,27.30
2019-04-07T17:19:40.425Z,27.70
2019-04-07T17:22:11.830Z,26.20
2019-04-07T17:24:38.942Z,23.70
2019-04-07T17:27:09.742Z,23.20
2019-04-07T17:29:37.251Z,22.50
2019-04-07T17:32:06.602Z,21.50
2019-04-07T17:34:35.551Z,20.60
2019-04-07T17:37:04.162Z,19.30
2019-04-07T17:39:36.924Z,18.50
2019-04-07T17:42:06.011Z,18.00
2019-04-07T17:44:36.006Z,17.60
2019-04-07T17:47:09.546Z,17.10
2019-04-07T17:49:39.641Z,16.80
2019-04-07T17:52:22.034Z,16.80
2019-04-07T17:55:04.257Z,16.50
2019-04-07T17:57:37.363Z,16.40
2019-04-07T18:00:18.592Z,16.00
2019-04-07T18:03:02.306Z,15.70
2019-04-07T18:05:45.713Z,15.30
2019-04-07T18:08:18.616Z,14.90
2019-04-07T18:11:04.859Z,14.60
2019-04-07T18:13:51.554Z,14.40
2019-04-07T18:16:31.812Z,14.10
2019-04-07T18:19:16.640Z,13.80
2019-04-07T18:22:02.605Z,13.50
2019-04-07T18:24:38.613Z,13.30
2019-04-07T18:27:21.138Z,13.10
2019-04-07T18:30:01.733Z,12.80
2019-04-07T18:32:50.178Z,12.60
2019-04-07T18:35:36.662Z,12.30
2019-04-07T18:38:21.783Z,12.20
2019-04-07T18:41:10.687Z,12.00
2019-04-07T18:43:52.028Z,11.70
2019-04-07T18:46:26.813Z,11.60
2019-04-07T18:49:06.092Z,11.40
2019-04-07T18:51:41.291Z,11.20
2019-04-07T18:54:11.120Z,11.10
2019-04-07T18:56:42.851Z,11.00
2019-04-07T18:59:21.778Z,10.90
2019-04-07T19:01:52.230Z,10.80
2019-04-07T19:04:28.024Z,10.70
2019-04-07T19:07:15.170Z,10.70
2019-04-07T19:10:06.221Z,10.60
2019-04-07T19:12:34.351Z,10.50
2019-04-07T19:15:09.190Z,10.40
2019-04-07T19:17:41.975Z,10.30
2019-04-07T19:20:26.814Z,10.20
2019-04-07T19:22:56.806Z,10.10
2019-04-07T19:25:27.028Z,10.00
2019-04-07T19:28:07.155Z,10.00
2019-04-07T19:30:43.699Z,10.00
2019-04-07T19:33:12.263Z,10.00
2019-04-07T19:35:59.282Z,10.00
2019-04-07T19:38:29.453Z,10.00
2019-04-07T19:41:00.340Z,10.10
2019-04-07T19:43:31.931Z,10.20
2019-04-07T19:46:07.750Z,11.00
2019-04-07T19:48:42.497Z,10.40
2019-04-07T19:51:18.190Z,10.20
2019-04-07T19:53:53.986Z,10.20
2019-04-07T19:56:32.818Z,10.20
2019-04-07T19:59:08.367Z,10.20
2019-04-07T20:01:37.923Z,10.20
2019-04-07T20:04:24.817Z,10.20
2019-04-07T20:07:13.568Z,10.20
2019-04-07T20:09:50.419Z,10.20
2019-04-07T20:12:20.698Z,10.20
2019-04-07T20:14:58.909Z,10.20
2019-04-07T20:17:24.472Z,10.10
2019-04-07T20:19:54.034Z,10.20
2019-04-07T20:22:30.743Z,10.20
2019-04-07T20:25:15.925Z,10.20
2019-04-07T20:27:49.999Z,10.20
2019-04-07T20:30:20.945Z,10.20
2019-04-07T20:32:59.467Z,10.20
2019-04-07T20:35:34.996Z,10.20
2019-04-07T20:38:21.458Z,10.20
2019-04-07T20:40:51.949Z,10.10
2019-04-07T20:43:28.444Z,10.10
2019-04-07T20:46:14.500Z,10.10
2019-04-07T20:49:02.842Z,10.10
2019-04-07T20:51:42.153Z,10.10
2019-04-07T20:54:31.553Z,10.00
2019-04-07T20:57:02.558Z,10.00
2019-04-07T20:59:33.330Z,10.00
2019-04-07T21:02:09.702Z,10.00
2019-04-07T21:04:49.931Z,9.90
2019-04-07T21:07:18.741Z,9.80
2019-04-07T21:10:07.614Z,9.80
2019-04-07T21:12:52.763Z,9.70
2019-04-07T21:15:31.477Z,9.50
2019-04-07T21:18:08.276Z,9.40
2019-04-07T21:20:38.958Z,9.30
2019-04-07T21:23:16.185Z,9.20
2019-04-07T21:25:43.390Z,9.10
2019-04-07T21:28:13.406Z,9.00
2019-04-07T21:30:44.104Z,8.90
2019-04-07T21:33:26.941Z,8.80
2019-04-07T21:35:57.023Z,8.80
2019-04-07T21:38:31.236Z,8.70
2019-04-07T21:41:14.364Z,8.60
2019-04-07T21:43:44.902Z,8.60
2019-04-07T21:46:22.223Z,8.40
2019-04-07T21:49:00.652Z,8.40
2019-04-07T21:51:35.737Z,8.40
2019-04-07T21:54:05.754Z,8.40
2019-04-07T21:56:44.216Z,8.40
2019-04-07T21:59:26.566Z,8.30
2019-04-07T22:01:59.342Z,8.20
2019-04-07T22:04:32.298Z,8.20
2019-04-07T22:07:17.453Z,8.10
2019-04-07T22:09:52.982Z,8.10
2019-04-07T22:12:25.639Z,8.20
2019-04-07T22:14:51.434Z,8.20
2019-04-07T22:17:19.810Z,8.30
2019-04-07T22:19:49.058Z,8.40
2019-04-07T22:22:18.444Z,8.50
2019-04-07T22:24:46.834Z,8.50
2019-04-07T22:27:17.573Z,8.60
2019-04-07T22:29:45.214Z,8.60
2019-04-07T22:32:17.420Z,8.70
2019-04-07T22:34:44.040Z,9.10
2019-04-07T22:37:26.127Z,9.10
2019-04-07T22:39:54.687Z,9.30
2019-04-07T22:42:23.131Z,9.00
2019-04-07T22:44:53.843Z,9.50
2019-04-07T22:47:22.635Z,9.20
2019-04-07T22:49:51.599Z,9.00
2019-04-07T22:52:20.554Z,9.10
2019-04-07T22:54:49.814Z,9.10
2019-04-07T22:57:18.218Z,8.90
2019-04-07T22:59:47.171Z,9.00
2019-04-07T23:02:15.912Z,9.10
2019-04-07T23:04:44.781Z,9.10
2019-04-07T23:07:13.782Z,9.00
2019-04-07T23:09:42.170Z,8.90
2019-04-07T23:12:10.655Z,8.80
2019-04-07T23:14:40.042Z,8.80
2019-04-07T23:17:08.494Z,8.80
2019-04-07T23:19:37.806Z,8.80
2019-04-07T23:22:06.441Z,8.90
2019-04-07T23:24:34.973Z,8.80
2019-04-07T23:27:04.121Z,8.80
2019-04-07T23:29:32.553Z,8.80
2019-04-07T23:32:01.841Z,9.20
2019-04-07T23:34:31.130Z,9.00
2019-04-07T23:36:59.779Z,8.90
2019-04-07T23:39:28.982Z,8.90
2019-04-07T23:41:57.560Z,9.00
2019-04-07T23:44:25.917Z,9.00
2019-04-07T23:46:55.072Z,9.20
2019-04-07T23:49:23.471Z,9.10
2019-04-07T23:51:51.902Z,9.10
2019-04-07T23:54:20.264Z,9.10
2019-04-07T23:56:48.642Z,9.10
2019-04-07T23:59:17.029Z,9.10
